Time;durP1;ratioP1;P1;durP2;ratioP2;P2;SDS_P1;SDS_P2;PMS_P1;PMS_P2;Temp;Humidity;BMP_temperature;BMP_pressure;BME280_temperature;BME280_humidity;BME280_pressure;Samples;Min_cycle;Max_cycle;Signal;HPM_P1;HPM_P2
2022/04/15 00:02:26;;;;;;;125.67;62.87;;;;;;;6.92;61.91;100765.10;1430488;85;22772;-83
2022/04/15 00:04:53;;;;;;;154.77;74.53;;;;;;;6.77;62.28;100764.47;1421598;86;22012;-83
2022/04/15 00:07:20;;;;;;;162.07;80.27;;;;;;;6.77;62.28;100764.47;1422057;86;21968;-83
2022/04/15 00:09:47;;;;;;;151.97;74.80;;;;;;;6.65;62.22;100758.33;1421723;86;22737;-83
2022/04/15 00:12:18;;;;;;;116.77;57.13;;;;;;;6.65;64.09;100762.77;1421322;86;21641;-83
2022/04/15 00:14:45;;;;;;;99.07;45.57;;;;;;;6.58;63.26;100764.98;1421667;86;22713;-83
2022/04/15 00:17:12;;;;;;;101.83;50.37;;;;;;;6.50;63.18;100761.63;1421555;86;22595;-84
2022/04/15 00:19:39;;;;;;;96.57;50.07;;;;;;;6.50;63.18;100761.63;1422167;86;21769;-88
2022/04/15 00:22:06;;;;;;;82.10;43.50;;;;;;;6.40;63.93;100761.09;1418529;86;21651;-88
2022/04/15 00:24:33;;;;;;;81.53;38.63;;;;;;;6.40;63.93;100761.09;1421979;86;21775;-88
2022/04/15 00:27:00;;;;;;;73.87;35.37;;;;;;;6.31;63.41;100752.92;1422180;86;22624;-87
2022/04/15 00:29:28;;;;;;;74.37;36.70;;;;;;;6.31;63.41;100752.92;1418931;86;21596;-88
2022/04/15 00:31:55;;;;;;;73.53;36.40;;;;;;;6.34;63.75;100757.12;1419176;86;22493;-86
2022/04/15 00:34:22;;;;;;;74.63;36.20;;;;;;;6.34;63.75;100757.12;1418645;86;21627;-88
2022/04/15 00:36:50;;;;;;;69.67;36.63;;;;;;;6.31;63.66;100758.19;1418405;86;21614;-88
2022/04/15 00:39:17;;;;;;;88.00;39.73;;;;;;;6.29;63.93;100756.13;1418714;86;21588;-88
2022/04/15 00:41:44;;;;;;;82.47;38.47;;;;;;;6.15;64.17;100745.78;1419089;86;22484;-89
2022/04/15 00:44:11;;;;;;;92.83;40.03;;;;;;;6.15;64.17;100745.78;1400073;87;21778;-88
2022/04/15 00:46:38;;;;;;;88.70;40.27;;;;;;;6.15;63.96;100745.78;1416051;86;21792;-88
2022/04/15 00:49:05;;;;;;;81.70;39.07;;;;;;;6.19;63.44;100751.20;1410089;86;21600;-88
2022/04/15 00:51:36;;;;;;;83.07;38.00;;;;;;;6.18;63.87;100757.38;1415048;86;21629;-87
2022/04/15 00:54:04;;;;;;;93.35;40.05;;;;;;;6.18;63.48;100746.88;1419051;86;22638;-87
2022/04/15 00:56:36;;;;;;;89.50;39.17;;;;;;;6.18;63.82;100748.19;1418139;85;21175;-88
2022/04/15 00:59:07;;;;;;;82.60;37.03;;;;;;;6.15;63.79;100746.27;1418969;86;21790;-87
2022/04/15 01:01:34;;;;;;;79.75;35.63;;;;;;;6.09;64.08;100747.06;1419517;86;22657;-86
2022/04/15 01:04:05;;;;;;;84.17;36.30;;;;;;;6.07;64.02;100744.18;1416613;86;22299;-89
2022/04/15 01:06:37;;;;;;;62.93;31.50;;;;;;;6.04;64.13;100743.09;1405923;87;22691;-86
2022/04/15 01:09:05;;;;;;;67.97;28.53;;;;;;;6.02;63.82;100738.44;1407361;86;21646;-86
2022/04/15 01:11:34;;;;;;;57.30;28.97;;;;;;;6.04;63.24;100738.70;1407082;87;21472;-86
2022/04/15 01:14:02;;;;;;;55.43;25.97;;;;;;;6.04;63.24;100738.70;1416634;86;21693;-86
2022/04/15 01:16:32;;;;;;;47.27;26.13;;;;;;;6.00;64.11;100735.91;1419173;86;21598;-86
2022/04/15 01:18:59;;;;;;;51.33;25.00;;;;;;;5.94;64.36;100740.30;1414713;86;21569;-87
2022/04/15 01:21:30;;;;;;;65.37;30.77;;;;;;;5.86;63.87;100730.78;1412049;86;21594;-86
2022/04/15 01:23:58;;;;;;;81.08;33.95;;;;;;;5.86;63.87;100730.78;1417010;86;21563;-86
2022/04/15 01:26:25;;;;;;;85.67;38.80;;;;;;;5.78;64.37;100728.72;1418312;86;21514;-86
2022/04/15 01:28:52;;;;;;;101.00;43.17;;;;;;;5.74;63.88;100728.55;1421576;86;21730;-86
2022/04/15 01:31:19;;;;;;;83.70;35.63;;;;;;;5.69;64.84;100728.03;1422170;86;21509;-86
2022/04/15 01:33:46;;;;;;;76.40;34.27;;;;;;;5.64;64.51;100720.50;1422133;86;21681;-86
2022/04/15 01:36:14;;;;;;;80.20;37.90;;;;;;;5.64;64.04;100718.36;1422117;86;21602;-87
2022/04/15 01:38:41;;;;;;;95.50;37.60;;;;;;;5.62;64.50;100718.93;1406544;89;21570;-87
2022/04/15 01:41:08;;;;;;;105.37;42.80;;;;;;;5.57;64.99;100713.98;1421977;86;21582;-87
2022/04/15 01:43:35;;;;;;;143.60;57.80;;;;;;;5.54;64.79;100712.06;1428024;86;22376;-86
2022/04/15 01:46:02;;;;;;;142.70;59.73;;;;;;;5.50;64.63;100703.56;1444365;85;21498;-88
2022/04/15 01:48:34;;;;;;;152.83;61.47;;;;;;;5.47;64.78;100708.17;1429633;84;21699;-87
2022/04/15 01:51:02;;;;;;;155.00;62.50;;;;;;;5.39;65.05;100704.31;1421602;86;21762;-87
2022/04/15 01:53:29;;;;;;;151.10;60.37;;;;;;;5.36;65.48;100698.45;1421666;86;22461;-87
2022/04/15 01:55:56;;;;;;;129.33;52.47;;;;;;;5.33;65.17;100699.50;1423383;86;22601;-87
2022/04/15 01:58:23;;;;;;;118.40;53.83;;;;;;;5.31;65.08;100694.82;1434437;85;21378;-87
2022/04/15 02:00:50;;;;;;;133.30;55.37;;;;;;;5.29;65.04;100699.80;1422469;86;21453;-87
2022/04/15 02:03:17;;;;;;;123.33;53.10;;;;;;;5.31;64.97;100697.45;1422166;86;21546;-87
2022/04/15 02:05:44;;;;;;;116.53;47.37;;;;;;;5.29;64.96;100696.70;1422090;86;21697;-87
2022/04/15 02:08:11;;;;;;;101.70;46.33;;;;;;;5.24;65.52;100694.06;1407133;87;21572;-88
2022/04/15 02:10:38;;;;;;;86.40;40.60;;;;;;;5.22;65.24;100687.59;1422127;86;21341;-87
2022/04/15 02:13:10;;;;;;;86.33;38.80;;;;;;;5.16;66.15;100692.80;1422164;86;21515;-87
2022/04/15 02:15:37;;;;;;;116.17;49.10;;;;;;;5.12;66.02;100691.79;1421976;86;21452;-86
2022/04/15 02:18:04;;;;;;;99.80;44.93;;;;;;;5.09;65.57;100688.06;1422013;86;22429;-87
2022/04/15 02:20:31;;;;;;;99.03;46.77;;;;;;;5.08;65.35;100679.84;1439587;85;21467;-86
2022/04/15 02:22:58;;;;;;;99.63;44.63;;;;;;;5.06;65.67;100685.18;1444297;85;21454;-88
2022/04/15 02:25:26;;;;;;;88.17;39.40;;;;;;;5.03;65.95;100684.56;1444780;85;21570;-87
2022/04/15 02:27:53;;;;;;;81.67;37.10;;;;;;;5.01;66.12;100679.91;1431231;84;21571;-87
2022/04/15 02:30:20;;;;;;;79.43;35.43;;;;;;;4.96;65.98;100673.19;1424663;84;21341;-89
2022/04/15 02:32:47;;;;;;;75.33;35.77;;;;;;;4.93;66.05;100675.19;1435832;85;21424;-88
2022/04/15 02:35:19;;;;;;;59.93;31.17;;;;;;;4.90;65.92;100668.84;1431084;85;21523;-87
2022/04/15 02:37:46;;;;;;;69.93;32.90;;;;;;;4.91;65.86;100670.03;1424680;86;21357;-87
2022/04/15 02:40:13;;;;;;;59.80;30.80;;;;;;;4.89;65.99;100671.08;1441327;85;21525;-87
2022/04/15 02:42:40;;;;;;;65.63;34.23;;;;;;;4.88;65.62;100664.99;1443330;84;21381;-88
2022/04/15 02:45:08;;;;;;;56.10;29.57;;;;;;;4.87;65.45;100665.95;1430901;85;22326;-89
2022/04/15 02:47:36;;;;;;;59.53;30.20;;;;;;;4.87;65.64;100664.64;1436909;85;21690;-86
2022/04/15 02:50:04;;;;;;;48.20;26.33;;;;;;;4.82;65.74;100667.20;1407732;87;21512;-86
2022/04/15 02:52:34;;;;;;;60.60;26.97;;;;;;;4.76;65.41;100668.46;1426137;86;21447;-86
2022/04/15 02:55:01;;;;;;;52.50;25.57;;;;;;;4.72;65.71;100665.70;1425857;86;21529;-86
2022/04/15 02:57:28;;;;;;;56.67;27.97;;;;;;;4.69;65.87;100661.50;1438223;85;22381;-86
2022/04/15 02:59:55;;;;;;;59.80;28.93;;;;;;;4.67;65.80;100661.23;1438984;85;22846;-86
2022/04/15 03:02:22;;;;;;;55.87;30.37;;;;;;;4.63;66.68;100661.05;1432021;85;21322;-85
2022/04/15 03:04:49;;;;;;;65.83;31.57;;;;;;;4.59;67.56;100666.14;1438161;85;21497;-86
2022/04/15 03:07:16;;;;;;;66.03;31.37;;;;;;;4.55;67.06;100668.14;1407807;88;21642;-86
2022/04/15 03:09:43;;;;;;;57.33;31.67;;;;;;;4.49;67.96;100665.45;1425439;86;21666;-86
2022/04/15 03:12:11;;;;;;;67.73;33.17;;;;;;;4.43;67.94;100664.56;1425849;85;21397;-86
2022/04/15 03:14:38;;;;;;;57.07;27.60;;;;;;;4.41;67.56;100662.50;1430244;85;22495;-86
2022/04/15 03:17:05;;;;;;;54.37;28.13;;;;;;;4.41;67.16;100657.73;1422090;86;21696;-88
2022/04/15 03:19:33;;;;;;;53.97;27.77;;;;;;;4.43;67.62;100664.56;1429791;86;21450;-89
2022/04/15 03:22:00;;;;;;;63.30;29.10;;;;;;;4.40;67.92;100662.59;1420556;85;21419;-87
2022/04/15 03:24:27;;;;;;;55.07;27.20;;;;;;;4.35;67.67;100666.84;1419912;86;22730;-86
2022/04/15 03:26:54;;;;;;;60.53;30.03;;;;;;;4.31;67.81;100667.97;1425879;85;21652;-85
2022/04/15 03:29:21;;;;;;;48.03;26.20;;;;;;;4.26;68.87;100668.77;1429076;85;21683;-86
2022/04/15 03:31:48;;;;;;;53.23;29.27;;;;;;;4.20;68.51;100668.70;1422732;86;21473;-85
2022/04/15 03:34:15;;;;;;;33.93;18.40;;;;;;;4.15;69.74;100664.70;1422002;86;21722;-85
2022/04/15 03:36:43;;;;;;;30.10;16.80;;;;;;;4.03;69.71;100673.73;1421904;86;21703;-85
2022/04/15 03:39:10;;;;;;;33.07;18.23;;;;;;;3.88;69.97;100676.01;1422273;86;22560;-85
2022/04/15 03:41:37;;;;;;;28.73;16.90;;;;;;;3.80;69.68;100673.91;1422113;86;22240;-85
2022/04/15 03:44:05;;;;;;;29.47;15.70;;;;;;;3.76;69.04;100675.49;1422627;86;21734;-86
2022/04/15 03:46:32;;;;;;;42.13;20.10;;;;;;;3.74;69.53;100676.05;1421945;86;21317;-85
2022/04/15 03:48:58;;;;;;;34.03;18.37;;;;;;;3.71;70.16;100677.11;1421757;86;21723;-85
2022/04/15 03:51:26;;;;;;;32.27;17.23;;;;;;;3.73;69.93;100681.77;1422396;86;21680;-86
2022/04/15 03:53:53;;;;;;;35.07;19.20;;;;;;;3.69;70.74;100684.22;1421988;86;21613;-86
2022/04/15 03:56:20;;;;;;;32.20;17.40;;;;;;;3.65;70.62;100684.49;1422278;86;22567;-86
2022/04/15 03:58:47;;;;;;;30.53;16.70;;;;;;;3.63;69.86;100689.00;1422159;86;21616;-86
2022/04/15 04:01:14;;;;;;;26.63;14.73;;;;;;;3.59;69.83;100686.55;1422251;86;21669;-86
2022/04/15 04:03:41;;;;;;;26.77;15.47;;;;;;;3.56;69.73;100688.53;1422354;86;21651;-86
2022/04/15 04:06:08;;;;;;;36.00;18.53;;;;;;;3.52;70.18;100688.36;1421923;86;21474;-86
2022/04/15 04:08:35;;;;;;;32.20;18.63;;;;;;;3.49;70.51;100702.48;1422431;86;21770;-86
2022/04/15 04:11:03;;;;;;;29.20;16.80;;;;;;;3.50;70.66;100704.14;1422471;86;21701;-85
2022/04/15 04:13:30;;;;;;;30.40;17.07;;;;;;;3.51;70.59;100700.61;1403911;88;22435;-85
2022/04/15 04:15:57;;;;;;;30.73;16.40;;;;;;;3.57;70.32;100706.77;1422249;86;21554;-85
2022/04/15 04:18:24;;;;;;;31.07;16.77;;;;;;;3.65;70.70;100699.72;1422038;86;21389;-86
2022/04/15 04:20:52;;;;;;;29.30;17.27;;;;;;;3.74;70.30;100696.55;1422252;86;21642;-85
2022/04/15 04:23:19;;;;;;;25.77;16.27;;;;;;;3.87;69.67;100695.77;1421904;86;22318;-85
2022/04/15 04:25:46;;;;;;;28.77;16.83;;;;;;;3.99;69.44;100701.04;1422351;86;21689;-85
2022/04/15 04:28:13;;;;;;;26.50;15.47;;;;;;;4.05;69.97;100698.02;1422284;86;21493;-85
2022/04/15 04:30:40;;;;;;;26.40;14.30;;;;;;;4.13;69.93;100702.77;1416808;86;21615;-85
2022/04/15 04:33:07;;;;;;;29.27;17.47;;;;;;;4.22;69.56;100693.00;1426583;86;23040;-85
2022/04/15 04:35:37;;;;;;;33.10;19.30;;;;;;;4.32;69.45;100695.88;1415678;86;21586;-89
2022/04/15 04:38:06;;;;;;;29.33;18.47;;;;;;;4.45;69.30;100703.28;1414944;87;23169;-84
2022/04/15 04:40:34;;;;;;;32.60;18.93;;;;;;;4.57;69.11;100702.09;1415361;86;21643;-88
2022/04/15 04:43:04;;;;;;;30.23;17.77;;;;;;;4.72;68.67;100707.65;1427272;86;21473;-86
2022/04/15 04:45:33;;;;;;;42.20;19.63;;;;;;;4.87;68.48;100701.36;1415734;86;21485;-86
2022/04/15 04:48:03;;;;;;;28.42;15.93;;;;;;;5.02;68.49;100699.94;1407560;87;21574;-86
2022/04/15 04:50:31;;;;;;;30.70;18.37;;;;;;;5.16;68.00;100699.84;1415688;86;21300;-85
2022/04/15 04:52:59;;;;;;;27.03;17.27;;;;;;;5.30;67.56;100707.59;1415756;86;21551;-86
2022/04/15 04:55:26;;;;;;;29.57;17.47;;;;;;;5.48;67.06;100707.25;1426253;86;21525;-88
2022/04/15 04:57:53;;;;;;;35.37;18.17;;;;;;;5.60;66.53;100712.94;1414918;86;23088;-86
2022/04/15 05:00:20;;;;;;;31.00;18.10;;;;;;;5.73;66.11;100708.98;1424820;88;21555;-85
2022/04/15 05:02:47;;;;;;;25.37;16.73;;;;;;;5.86;65.88;100705.34;1419644;86;21599;-85
2022/04/15 05:05:15;;;;;;;34.23;20.30;;;;;;;6.03;65.66;100704.16;1428003;85;21711;-85
2022/04/15 05:07:42;;;;;;;38.27;22.50;;;;;;;6.19;65.29;100707.83;1428303;85;21711;-85
2022/04/15 05:10:09;;;;;;;32.87;18.33;;;;;;;6.38;65.00;100702.52;1398294;86;21672;-86
2022/04/15 05:12:36;;;;;;;33.07;18.73;;;;;;;6.55;64.60;100703.41;1425120;86;22465;-85
2022/04/15 05:15:04;;;;;;;32.97;17.47;;;;;;;6.73;64.52;100666.54;1415554;86;21786;-86
2022/04/15 05:17:35;;;;;;;27.40;15.97;;;;;;;6.93;64.03;100666.33;1423269;84;22071;-86
2022/04/15 05:20:04;;;;;;;23.07;15.63;;;;;;;7.14;63.56;100700.66;1411105;87;22023;-87
2022/04/15 05:22:31;;;;;;;32.83;16.07;;;;;;;7.39;63.04;100705.32;1415359;87;21199;-86
2022/04/15 05:24:58;;;;;;;26.50;15.83;;;;;;;7.59;62.64;100709.85;1407009;86;21939;-87
2022/04/15 05:27:25;;;;;;;19.20;13.13;;;;;;;7.79;62.00;100711.39;1425855;86;22991;-87
2022/04/15 05:29:52;;;;;;;25.07;14.23;;;;;;;7.99;61.60;100707.98;1432699;85;22918;-87
2022/04/15 05:32:22;;;;;;;20.10;13.03;;;;;;;8.19;60.61;100711.11;1436636;85;21272;-85
2022/04/15 05:34:49;;;;;;;24.60;13.07;;;;;;;8.31;59.84;100711.11;1428648;86;21231;-86
2022/04/15 05:37:22;;;;;;;22.60;12.00;;;;;;;8.42;59.53;100708.47;1421374;87;21234;-86
2022/04/15 05:39:49;;;;;;;24.90;13.60;;;;;;;8.52;58.04;100709.39;1447754;84;21500;-86
2022/04/15 05:42:16;;;;;;;22.67;13.67;;;;;;;8.67;57.57;100702.00;1447606;84;21478;-85
2022/04/15 05:44:43;;;;;;;20.07;11.93;;;;;;;8.83;58.14;100706.80;1427539;86;21308;-86
2022/04/15 05:47:10;;;;;;;20.93;12.50;;;;;;;8.98;57.62;100700.25;1447741;84;21234;-87
2022/04/15 05:49:37;;;;;;;19.63;12.30;;;;;;;9.19;57.18;100712.09;1448565;84;21374;-86
2022/04/15 05:52:05;;;;;;;20.67;11.60;;;;;;;9.37;56.88;100711.47;1448249;84;21308;-86
2022/04/15 05:54:32;;;;;;;22.23;12.27;;;;;;;9.55;55.85;100709.89;1433855;84;22192;-86
2022/04/15 05:56:59;;;;;;;25.90;13.80;;;;;;;9.73;55.06;100707.92;1426823;86;22169;-86
2022/04/15 05:59:26;;;;;;;65.33;16.27;;;;;;;9.94;54.69;100712.13;1426844;86;21275;-87
2022/04/15 06:01:53;;;;;;;24.50;12.17;;;;;;;10.15;53.64;100708.53;1426704;86;21348;-87
2022/04/15 06:04:20;;;;;;;28.13;13.53;;;;;;;10.32;53.15;100703.91;1426836;86;21341;-86
2022/04/15 06:06:47;;;;;;;28.90;16.30;;;;;;;10.51;52.56;100695.63;1426703;86;21238;-86
2022/04/15 06:09:17;;;;;;;25.50;15.98;;;;;;;10.69;51.88;100691.28;1426983;86;21293;-86
2022/04/15 06:11:44;;;;;;;23.43;13.70;;;;;;;10.86;50.92;100694.19;1405418;87;21287;-87
2022/04/15 06:14:12;;;;;;;23.80;14.13;;;;;;;11.07;50.54;100693.48;1427939;85;21231;-87
2022/04/15 06:16:42;;;;;;;24.20;14.53;;;;;;;11.23;48.68;100684.44;1426962;86;21268;-86
2022/04/15 06:19:09;;;;;;;27.67;16.20;;;;;;;11.35;48.72;100686.91;1423147;85;21230;-87
2022/04/15 06:21:36;;;;;;;28.50;14.23;;;;;;;11.51;48.54;100683.14;1427011;86;21326;-86
2022/04/15 06:24:04;;;;;;;28.37;14.60;;;;;;;11.66;48.33;100684.31;1427434;86;21234;-87
2022/04/15 06:26:31;;;;;;;23.43;14.73;;;;;;;11.81;47.35;100681.98;1424003;86;21386;-87
2022/04/15 06:28:58;;;;;;;28.83;13.90;;;;;;;11.93;46.13;100676.83;1426907;86;21368;-88
2022/04/15 06:31:26;;;;;;;20.87;13.63;;;;;;;12.01;46.21;100677.41;1427253;85;21390;-87
2022/04/15 06:33:53;;;;;;;24.77;13.53;;;;;;;12.18;46.27;100664.64;1426311;86;21300;-87
2022/04/15 06:36:20;;;;;;;33.33;14.20;;;;;;;12.40;45.52;100666.00;1426795;85;22673;-86
2022/04/15 06:38:48;;;;;;;24.77;14.63;;;;;;;12.60;43.89;100663.14;1430170;86;21292;-89
2022/04/15 06:41:15;;;;;;;22.67;12.97;;;;;;;12.79;43.51;100666.10;1421532;87;21206;-90
2022/04/15 06:43:42;;;;;;;27.17;13.10;;;;;;;12.96;43.36;100669.20;1409849;86;21254;-86
2022/04/15 06:46:09;;;;;;;19.23;11.07;;;;;;;13.15;42.15;100667.30;1400995;87;21390;-85
2022/04/15 06:48:36;;;;;;;25.73;10.73;;;;;;;13.34;40.49;100667.09;1402294;88;21474;-85
2022/04/15 06:51:03;;;;;;;19.27;10.80;;;;;;;13.53;39.33;100669.50;1426792;86;21234;-87
2022/04/15 06:53:31;;;;;;;22.17;10.77;;;;;;;13.71;40.07;100663.23;1403499;87;21354;-86
2022/04/15 06:55:58;;;;;;;23.47;11.17;;;;;;;13.88;39.40;100663.61;1403781;88;21398;-86
2022/04/15 06:58:25;;;;;;;17.87;9.70;;;;;;;14.05;37.49;100664.98;1422188;86;21272;-86
2022/04/15 07:00:53;;;;;;;29.90;10.67;;;;;;;14.21;38.38;100664.97;1426360;86;21220;-85
2022/04/15 07:03:20;;;;;;;24.97;10.47;;;;;;;14.39;38.21;100671.49;1425686;86;21270;-96
2022/04/15 07:10:55;;;;;;;25.05;11.90;;;;;;;14.73;37.22;100662.02;1424236;84;21619;31
2022/04/15 07:13:22;;;;;;;22.20;11.22;;;;;;;14.94;37.01;100662.80;1415503;85;21609;-92
2022/04/15 07:15:53;;;;;;;29.63;12.30;;;;;;;15.15;36.62;100660.89;1369411;84;23281;31
2022/04/15 07:18:22;;;;;;;35.92;11.90;;;;;;;15.28;36.45;100661.19;1413273;84;23414;31
2022/04/15 07:20:52;;;;;;;21.97;11.77;;;;;;;15.44;36.93;100664.79;1378599;86;21632;31
2022/04/15 07:23:33;;;;;;;27.62;13.25;;;;;;;15.54;35.40;100661.42;1397490;86;21569;-91
2022/04/15 07:26:01;;;;;;;;;;;;;;;15.74;36.05;100665.34;1374905;86;22345;31
2022/04/15 07:28:29;;;;;;;18.33;10.73;;;;;;;15.87;35.86;100658.08;1406642;85;21888;31
2022/04/15 07:30:56;;;;;;;21.97;11.70;;;;;;;16.01;35.22;100653.83;1420334;85;22705;-94
2022/04/15 07:35:58;;;;;;;19.10;10.80;;;;;;;16.23;34.90;100655.67;1401766;86;21815;31
2022/04/15 07:38:30;;;;;;;;;;;;;;;16.33;34.75;100654.08;1428617;83;24775;31
2022/04/15 07:41:03;;;;;;;19.77;11.00;;;;;;;16.50;32.66;100659.29;1423210;83;20244;-86
2022/04/15 07:43:31;;;;;;;20.17;10.17;;;;;;;16.61;34.06;100650.84;1395042;87;21317;-92
2022/04/15 07:46:04;;;;;;;17.67;10.37;;;;;;;16.75;34.06;100655.89;1390824;88;21310;-91
2022/04/15 07:48:31;;;;;;;35.77;12.73;;;;;;;16.89;32.94;100655.11;1379502;89;21311;-88
2022/04/15 07:50:59;;;;;;;19.70;10.03;;;;;;;17.06;33.00;100652.58;1379955;88;22233;-90
2022/04/15 07:53:26;;;;;;;25.83;9.90;;;;;;;17.18;32.50;100653.45;1383719;89;22093;-89
2022/04/15 07:55:53;;;;;;;16.77;8.43;;;;;;;17.31;31.57;100653.61;1386154;88;21376;-90
2022/04/15 07:58:20;;;;;;;17.53;8.37;;;;;;;17.45;32.27;100650.60;1373265;90;22212;-90
2022/04/15 08:00:49;;;;;;;18.73;8.90;;;;;;;17.67;32.59;100652.83;1378392;89;21431;-90
2022/04/15 08:03:20;;;;;;;16.93;9.00;;;;;;;17.79;31.31;100656.70;1392159;85;22419;-86
2022/04/15 08:08:22;;;;;;;18.17;8.10;;;;;;;18.07;31.44;100650.58;1396032;88;21483;-94
2022/04/15 08:10:51;;;;;;;18.77;7.70;;;;;;;18.24;30.78;100648.81;1397348;88;21267;-93
2022/04/15 08:13:19;;;;;;;16.53;8.10;;;;;;;18.39;29.98;100645.23;1387829;88;22097;-93
2022/04/15 08:15:50;;;;;;;13.37;7.93;;;;;;;18.46;29.85;100642.90;1387058;88;21298;-94
2022/04/15 08:18:16;;;;;;;10.80;6.37;;;;;;;18.59;29.54;100652.91;1383545;88;21215;-93
2022/04/15 08:20:44;;;;;;;19.17;6.80;;;;;;;18.71;28.92;100642.48;1361979;90;21378;-85
2022/04/15 08:23:11;;;;;;;12.00;6.97;;;;;;;18.84;29.07;100643.09;1356483;90;21371;-86
2022/04/15 08:25:38;;;;;;;46.97;9.27;;;;;;;19.04;28.96;100641.36;1362091;91;21367;-86
2022/04/15 08:28:06;;;;;;;17.13;6.10;;;;;;;19.25;29.14;100636.43;1374430;89;22209;-86
2022/04/15 08:30:33;;;;;;;10.37;5.10;;;;;;;19.50;29.07;100645.30;1381773;88;21314;-86
2022/04/15 08:33:02;;;;;;;11.97;5.73;;;;;;;19.69;27.97;100642.41;1381880;89;21410;-86
2022/04/15 08:35:29;;;;;;;9.83;5.60;;;;;;;19.80;26.91;100639.13;1361980;90;21403;-84
2022/04/15 08:37:56;;;;;;;10.90;5.10;;;;;;;19.81;27.11;100638.91;1374583;89;22297;-87
2022/04/15 08:40:31;;;;;;;10.60;5.23;;;;;;;19.88;27.42;100636.75;1368151;89;21412;-87
2022/04/15 08:42:54;;;;;;;12.97;4.20;;;;;;;19.94;27.00;100638.62;1379106;89;21372;-86
2022/04/15 08:45:22;;;;;;;11.60;4.00;;;;;;;19.98;25.58;100631.30;1373311;88;21277;-87
2022/04/15 08:47:49;;;;;;;14.18;5.65;;;;;;;19.94;25.22;100639.96;1372686;89;21337;-88
2022/04/15 08:50:16;;;;;;;13.23;5.57;;;;;;;20.02;26.00;100629.03;1376482;89;21339;-88
2022/04/15 08:52:45;;;;;;;10.13;4.77;;;;;;;20.17;25.94;100632.38;1376877;89;21255;-87
2022/04/15 08:55:21;;;;;;;8.77;5.30;;;;;;;20.32;25.48;100628.66;1367511;90;22308;-87
2022/04/15 08:57:58;;;;;;;8.53;4.85;;;;;;;20.42;25.99;100627.71;1366019;92;21468;-88
2022/04/15 09:00:32;;;;;;;21.05;4.67;;;;;;;20.52;24.09;100625.45;1376602;90;21294;-86
2022/04/15 09:02:59;;;;;;;11.65;4.17;;;;;;;20.57;25.00;100624.83;1350400;90;22332;-86
2022/04/15 09:05:28;;;;;;;8.08;3.85;;;;;;;20.70;24.79;100620.80;1353275;91;21223;-86
2022/04/15 09:08:08;;;;;;;10.17;4.00;;;;;;;20.82;24.60;100620.45;1367087;89;21388;-86
2022/04/15 09:10:36;;;;;;;8.20;3.42;;;;;;;20.95;23.92;100615.58;1380201;89;22005;-86
2022/04/15 09:13:04;;;;;;;21.05;4.28;;;;;;;21.06;23.36;100616.27;1380733;88;21365;-86
2022/04/15 09:15:32;;;;;;;5.15;3.70;;;;;;;21.21;23.56;100613.84;1372548;88;21421;-86
2022/04/15 09:18:00;;;;;;;6.95;3.02;;;;;;;21.30;22.23;100607.17;1368885;90;21530;-87
2022/04/15 09:20:34;;;;;;;6.37;3.05;;;;;;;21.44;22.79;100608.80;1369575;90;21337;-87
2022/04/15 09:23:10;;;;;;;6.45;3.90;;;;;;;21.63;21.54;100607.02;1362614;90;21439;-86
2022/04/15 09:25:40;;;;;;;11.08;3.90;;;;;;;21.66;21.02;100613.84;1365542;90;22254;-88
2022/04/15 09:28:07;;;;;;;6.72;3.00;;;;;;;21.68;21.27;100611.77;1362910;90;21299;-84
2022/04/15 09:30:39;;;;;;;4.55;2.77;;;;;;;21.71;21.27;100605.42;1362906;90;21469;-89
2022/04/15 09:33:08;;;;;;;9.18;3.80;;;;;;;21.80;21.23;100605.47;1362738;90;21306;-88
2022/04/15 09:35:35;;;;;;;11.40;3.25;;;;;;;21.82;20.21;100610.65;1364084;90;21291;-88
2022/04/15 09:38:04;;;;;;;12.93;3.95;;;;;;;21.80;21.13;100606.81;1350263;91;22349;-88
2022/04/15 09:40:37;;;;;;;10.93;2.70;;;;;;;21.93;21.46;100601.88;1362857;90;21433;-90
2022/04/15 09:43:06;;;;;;;7.08;3.27;;;;;;;21.98;19.98;100595.81;1371698;89;21273;-88
2022/04/15 09:45:38;;;;;;;13.13;2.98;;;;;;;22.11;19.45;100588.16;1368269;90;21385;-90
2022/04/15 09:48:11;;;;;;;11.22;3.30;;;;;;;22.29;20.69;100589.59;1362948;90;21533;-90
2022/04/15 09:50:46;;;;;;;8.03;3.98;;;;;;;22.33;20.28;100591.31;1362278;90;21296;-91
2022/04/15 09:53:15;;;;;;;6.65;3.60;;;;;;;22.41;19.89;100588.34;1361229;91;21533;-91
2022/04/15 09:55:46;;;;;;;10.65;3.20;;;;;;;22.59;20.68;100582.99;1362432;90;21393;-88
2022/04/15 09:58:19;;;;;;;10.05;3.12;;;;;;;22.73;20.27;100585.03;1364603;90;21317;-88
2022/04/15 10:00:51;;;;;;;6.53;3.10;;;;;;;22.85;20.34;100579.19;1334014;92;22345;-89
2022/04/15 10:03:22;;;;;;;9.20;3.00;;;;;;;22.91;19.63;100576.11;1381279;89;21314;-88
2022/04/15 10:05:55;;;;;;;9.73;3.30;;;;;;;22.83;19.88;100581.27;1379773;89;22687;-87
2022/04/15 10:08:27;;;;;;;7.95;3.65;;;;;;;23.10;20.77;100575.59;1381333;89;21417;-86
2022/04/15 10:10:56;;;;;;;9.05;3.65;;;;;;;23.49;19.19;100560.75;1381655;89;21477;-87
2022/04/15 10:13:28;;;;;;;5.28;2.72;;;;;;;23.49;19.19;100560.75;1368104;90;21254;-87
2022/04/15 10:15:53;;;;;;;5.85;3.27;;;;;;;23.36;19.85;100559.07;1381473;88;21425;-87
2022/04/15 10:18:22;;;;;;;8.88;3.17;;;;;;;23.39;18.92;100565.36;1367983;90;21366;-88
2022/04/15 10:20:51;;;;;;;6.10;3.30;;;;;;;23.33;18.77;100566.28;1381362;88;21418;-88
2022/04/15 10:23:20;;;;;;;5.58;3.35;;;;;;;23.41;19.64;100565.94;1374892;89;22574;-88
2022/04/15 10:25:50;;;;;;;7.10;3.10;;;;;;;23.40;18.57;100560.78;1362793;90;21418;-87
2022/04/15 10:28:19;;;;;;;9.53;3.30;;;;;;;23.36;19.70;100561.77;1363288;90;21945;-83
2022/04/15 10:30:54;;;;;;;5.12;3.45;;;;;;;23.48;20.27;100559.61;1363111;90;21278;-83
2022/04/15 10:33:29;;;;;;;8.73;3.87;;;;;;;23.52;20.05;100558.94;1362418;90;22179;-83
2022/04/15 10:36:19;;;;;;;11.60;3.00;;;;;;;23.31;19.73;100558.92;1363072;90;21321;-83
2022/04/15 10:39:06;;;;;;;9.93;3.47;;;;;;;23.38;20.16;100558.30;1362725;90;21336;-83
2022/04/15 10:42:01;;;;;;;7.12;3.02;;;;;;;23.71;19.32;100553.48;1334688;91;21352;-83
2022/04/15 10:44:41;;;;;;;12.45;3.37;;;;;;;23.61;17.79;100544.04;1369268;90;21365;-83
2022/04/15 10:47:26;;;;;;;7.50;3.83;;;;;;;23.54;18.50;100547.91;1355181;92;21358;-84
2022/04/15 10:50:03;;;;;;;7.40;4.35;;;;;;;23.51;19.53;100544.33;1362470;90;21595;-83
2022/04/15 10:52:30;;;;;;;7.30;3.95;;;;;;;23.78;20.05;100536.13;1364626;90;21512;-84
2022/04/15 10:55:11;;;;;;;7.12;3.75;;;;;;;23.99;19.63;100536.63;1362491;90;21439;-84
2022/04/15 10:57:49;;;;;;;21.57;3.98;;;;;;;24.00;19.43;100530.19;1362610;90;22329;-84
2022/04/15 11:03:31;;;;;;;8.33;4.08;;;;;;;23.54;19.23;100533.06;1379672;89;22709;-83
2022/04/15 11:06:00;;;;;;;6.70;3.33;;;;;;;23.07;20.41;100531.51;1379582;89;22404;-85
2022/04/15 11:08:27;;;;;;;6.58;3.65;;;;;;;22.95;20.84;100532.27;1373550;88;21373;-85
2022/04/15 11:11:04;;;;;;;4.92;3.60;;;;;;;22.90;21.27;100524.52;1381065;88;21241;-85
2022/04/15 11:13:49;;;;;;;11.78;3.60;;;;;;;22.98;21.26;100526.41;1374986;90;21384;-85
2022/04/15 11:16:54;;;;;;;7.75;3.25;;;;;;;23.31;21.10;100523.00;1372738;91;22209;-84
2022/04/15 11:19:24;;;;;;;5.87;3.22;;;;;;;23.38;20.83;100523.19;1366507;91;21373;-85
2022/04/15 11:21:53;;;;;;;5.95;2.65;;;;;;;23.79;20.35;100514.80;1363749;90;21305;-85
2022/04/15 11:24:26;;;;;;;9.20;3.72;;;;;;;23.70;19.76;100516.70;1351027;92;21428;-84
2022/04/15 11:27:03;;;;;;;17.23;4.70;;;;;;;23.77;19.91;100520.16;1366490;90;22217;-84
2022/04/15 11:29:34;;;;;;;18.52;4.47;;;;;;;23.81;20.95;100514.05;1382484;88;21425;-84
2022/04/15 11:32:08;;;;;;;9.20;3.20;;;;;;;24.09;20.35;100520.66;1381881;89;21322;-84
2022/04/15 11:34:35;;;;;;;8.08;3.40;;;;;;;24.20;20.20;100514.44;1381530;89;21322;-84
2022/04/15 11:37:05;;;;;;;4.60;2.50;;;;;;;24.27;19.50;100505.66;1381354;89;21255;-84
2022/04/15 11:39:35;;;;;;;7.97;3.42;;;;;;;24.04;20.04;100505.66;1368193;90;21653;-84